createdAt,value
2023-02-06T00:00:16.567Z,2.30
2023-02-06T00:02:42.957Z,3.13
2023-02-06T00:07:35.673Z,2.92
2023-02-06T00:10:02.177Z,3.80
2023-02-06T00:14:54.829Z,3.85
2023-02-06T00:17:21.193Z,3.03
2023-02-06T00:19:47.557Z,3.22
2023-02-06T00:22:14.067Z,3.53
2023-02-06T00:27:07.795Z,3.00
2023-02-06T00:29:34.242Z,2.88
2023-02-06T00:34:26.893Z,3.20
2023-02-06T00:36:53.237Z,3.50
2023-02-06T00:39:19.888Z,3.83
2023-02-06T00:41:46.244Z,3.20
2023-02-06T00:44:12.565Z,3.47
2023-02-06T00:46:38.932Z,2.72
2023-02-06T00:49:05.260Z,3.15
2023-02-06T00:51:31.637Z,3.17
2023-02-06T00:53:58.028Z,3.20
2023-02-06T00:56:24.391Z,2.85
2023-02-06T00:58:50.767Z,3.63
2023-02-06T01:01:17.576Z,3.20
2023-02-06T01:03:43.993Z,3.42
2023-02-06T01:06:10.491Z,2.47
2023-02-06T01:11:10.113Z,2.35
2023-02-06T01:13:36.524Z,2.80
2023-02-06T01:16:03.009Z,2.85
2023-02-06T01:18:29.393Z,2.75
2023-02-06T01:20:55.737Z,2.45
2023-02-06T01:23:22.057Z,2.83
2023-02-06T01:25:48.406Z,2.65
2023-02-06T01:28:14.793Z,3.35
2023-02-06T01:33:07.549Z,2.72
2023-02-06T01:35:34.380Z,2.45
2023-02-06T01:38:00.923Z,3.08
2023-02-06T01:42:53.548Z,2.97
2023-02-06T01:45:26.131Z,3.05
2023-02-06T01:47:58.450Z,3.53
2023-02-06T01:50:24.893Z,2.50
2023-02-06T01:55:17.917Z,3.22
2023-02-06T01:57:44.285Z,2.60
2023-02-06T02:00:11.544Z,3.20
2023-02-06T02:02:42.376Z,2.33
2023-02-06T02:05:11.193Z,2.63
2023-02-06T02:07:44.928Z,3.22
2023-02-06T02:10:11.343Z,2.80
2023-02-06T02:15:04.248Z,2.42
2023-02-06T02:17:42.525Z,2.30
2023-02-06T02:20:27.662Z,2.63
2023-02-06T02:23:20.944Z,2.20
2023-02-06T02:25:56.120Z,2.92
2023-02-06T02:28:37.708Z,2.58
2023-02-06T02:31:23.079Z,2.60
2023-02-06T02:34:20.410Z,2.38
2023-02-06T02:37:14.527Z,3.20
2023-02-06T02:39:46.176Z,2.97
2023-02-06T02:42:22.927Z,3.00
2023-02-06T02:45:04.528Z,2.65
2023-02-06T02:47:40.692Z,3.20
2023-02-06T02:50:07.792Z,2.40
2023-02-06T02:52:34.131Z,2.97
2023-02-06T02:55:00.579Z,2.92
2023-02-06T03:00:00.206Z,2.88
2023-02-06T03:02:31.988Z,2.40
2023-02-06T03:05:11.761Z,2.42
2023-02-06T03:08:21.913Z,2.72
2023-02-06T03:11:03.334Z,2.00
2023-02-06T03:13:34.496Z,2.13
2023-02-06T03:16:24.962Z,1.98
2023-02-06T03:21:29.182Z,2.03
2023-02-06T03:24:01.376Z,3.08
2023-02-06T03:26:30.095Z,2.80
2023-02-06T03:29:01.064Z,2.20
2023-02-06T03:31:34.234Z,1.83
2023-02-06T03:34:35.764Z,2.50
2023-02-06T03:37:02.138Z,1.90
2023-02-06T03:39:29.036Z,2.25
2023-02-06T03:41:58.537Z,1.83
2023-02-06T03:44:31.518Z,2.22
2023-02-06T03:46:59.869Z,2.60
2023-02-06T03:49:29.300Z,2.28
2023-02-06T03:52:07.773Z,1.90
2023-02-06T03:57:08.190Z,2.10
2023-02-06T03:59:34.651Z,1.50
2023-02-06T04:02:03.581Z,1.30
2023-02-06T04:04:38.438Z,1.60
2023-02-06T04:07:12.649Z,1.98
2023-02-06T04:09:39.927Z,1.90
2023-02-06T04:12:06.706Z,1.50
2023-02-06T04:14:33.144Z,1.80
2023-02-06T04:19:25.806Z,1.67
2023-02-06T04:21:52.173Z,1.40
2023-02-06T04:24:18.518Z,1.13
2023-02-06T04:26:44.831Z,1.88
2023-02-06T04:29:11.173Z,1.63
2023-02-06T04:31:37.596Z,1.85
2023-02-06T04:36:30.334Z,2.00
2023-02-06T04:41:22.897Z,2.70
2023-02-06T04:43:49.226Z,2.08
2023-02-06T04:46:15.728Z,1.77
2023-02-06T04:48:42.420Z,1.95
2023-02-06T04:51:08.818Z,2.30
2023-02-06T04:53:35.565Z,2.25
2023-02-06T04:56:07.090Z,2.33
2023-02-06T04:58:34.081Z,1.90
2023-02-06T05:01:01.009Z,2.28
2023-02-06T05:03:27.435Z,2.22
2023-02-06T05:08:20.038Z,1.90
2023-02-06T05:10:46.436Z,2.60
2023-02-06T05:15:39.608Z,2.20
2023-02-06T05:18:06.282Z,2.40
2023-02-06T05:20:32.830Z,2.25
2023-02-06T05:22:59.179Z,2.30
2023-02-06T05:25:25.500Z,1.92
2023-02-06T05:27:51.954Z,2.72
2023-02-06T05:32:44.854Z,2.13
2023-02-06T05:35:11.418Z,1.83
2023-02-06T05:37:37.834Z,2.25
2023-02-06T05:42:34.232Z,1.88
2023-02-06T05:45:00.637Z,2.80
2023-02-06T05:47:27.049Z,2.08
2023-02-06T05:52:19.825Z,2.03
2023-02-06T05:54:46.218Z,2.38
2023-02-06T05:57:12.532Z,2.08
2023-02-06T05:59:38.966Z,2.33
2023-02-06T06:04:31.676Z,2.90
2023-02-06T06:09:24.610Z,2.33
2023-02-06T06:11:50.952Z,3.20
2023-02-06T06:14:17.939Z,2.83
2023-02-06T06:16:44.320Z,2.55
2023-02-06T06:19:10.694Z,2.33
2023-02-06T06:21:37.069Z,2.00
2023-02-06T06:24:03.629Z,2.38
2023-02-06T06:26:30.115Z,2.00
2023-02-06T06:31:23.308Z,1.90
2023-02-06T06:33:49.789Z,2.40
2023-02-06T06:38:42.414Z,2.30
2023-02-06T06:43:35.344Z,2.40
2023-02-06T06:46:01.844Z,1.80
2023-02-06T06:48:28.576Z,3.05
2023-02-06T06:50:54.968Z,2.58
2023-02-06T06:55:47.716Z,1.85
2023-02-06T06:58:14.324Z,2.70
2023-02-06T07:00:40.820Z,2.40
2023-02-06T07:03:07.417Z,2.65
2023-02-06T07:05:34.479Z,2.60
2023-02-06T07:08:01.030Z,2.67
2023-02-06T07:12:53.687Z,2.30
2023-02-06T07:15:20.494Z,2.33
2023-02-06T07:17:46.929Z,2.38
2023-02-06T07:22:39.647Z,3.72
2023-02-06T07:25:06.562Z,2.90
2023-02-06T07:27:33.048Z,2.70
2023-02-06T07:32:26.472Z,2.95
2023-02-06T07:34:52.796Z,2.53
2023-02-06T07:37:19.190Z,2.33
2023-02-06T07:39:45.492Z,3.40
2023-02-06T07:42:11.826Z,2.70
2023-02-06T07:44:38.202Z,3.03
2023-02-06T07:49:30.879Z,2.35
2023-02-06T07:51:57.252Z,2.47
2023-02-06T07:54:23.596Z,2.67
2023-02-06T07:56:50.022Z,2.67
2023-02-06T08:01:42.802Z,2.05
2023-02-06T08:06:36.475Z,2.40
2023-02-06T08:11:29.101Z,2.40
2023-02-06T08:16:23.267Z,2.03
2023-02-06T08:18:50.170Z,2.03
2023-02-06T08:21:22.133Z,2.30
2023-02-06T08:23:54.837Z,2.28
2023-02-06T08:26:21.410Z,2.92
2023-02-06T08:28:49.445Z,2.13
2023-02-06T08:31:22.777Z,2.60
2023-02-06T08:33:49.584Z,2.30
2023-02-06T08:36:18.042Z,2.40
2023-02-06T08:38:44.597Z,2.60
2023-02-06T08:41:24.794Z,2.70
2023-02-06T08:43:53.564Z,2.80
2023-02-06T08:46:21.590Z,2.88
2023-02-06T08:48:48.067Z,2.90
2023-02-06T08:51:14.626Z,2.95
2023-02-06T08:53:41.420Z,3.10
2023-02-06T08:56:11.657Z,3.15
2023-02-06T08:58:38.753Z,2.63
2023-02-06T09:01:11.027Z,2.60
2023-02-06T09:03:37.428Z,2.55
2023-02-06T09:06:09.962Z,2.95
2023-02-06T09:08:36.771Z,2.15
2023-02-06T09:11:22.825Z,2.33
2023-02-06T09:13:50.256Z,2.55
2023-02-06T09:16:19.534Z,2.50
2023-02-06T09:18:46.640Z,2.00
2023-02-06T09:21:14.458Z,3.05
2023-02-06T09:23:43.428Z,2.50
2023-02-06T09:26:11.164Z,2.00
2023-02-06T09:28:37.612Z,2.70
2023-02-06T09:31:04.389Z,2.30
2023-02-06T09:33:30.707Z,2.63
2023-02-06T09:38:32.668Z,1.50
2023-02-06T09:41:02.462Z,1.80
2023-02-06T09:43:31.712Z,2.35
2023-02-06T09:46:04.495Z,2.67
2023-02-06T09:48:34.644Z,2.08
2023-02-06T09:51:29.989Z,2.55
2023-02-06T09:54:31.286Z,2.20
2023-02-06T09:57:06.072Z,2.65
2023-02-06T09:59:39.223Z,2.22
2023-02-06T10:02:42.634Z,1.75
2023-02-06T10:05:26.625Z,1.75
2023-02-06T10:08:13.958Z,2.00
2023-02-06T10:10:52.106Z,1.42
2023-02-06T10:13:28.933Z,1.98
2023-02-06T10:16:00.611Z,2.20
2023-02-06T10:18:35.543Z,2.15
2023-02-06T10:21:06.661Z,1.52
2023-02-06T10:23:36.014Z,1.20
2023-02-06T10:26:14.627Z,1.77
2023-02-06T10:28:40.988Z,2.05
2023-02-06T10:31:25.735Z,1.55
2023-02-06T10:34:16.303Z,1.60
2023-02-06T10:37:10.677Z,1.98
2023-02-06T10:39:42.782Z,1.73
2023-02-06T10:42:43.649Z,2.00
2023-02-06T10:45:30.572Z,1.75
2023-02-06T10:48:13.209Z,1.60
2023-02-06T10:50:48.632Z,2.22
2023-02-06T10:53:37.244Z,1.80
2023-02-06T10:56:17.983Z,1.77
2023-02-06T10:59:11.105Z,2.33
2023-02-06T11:01:39.786Z,2.30
2023-02-06T11:04:24.568Z,1.80
2023-02-06T11:06:57.771Z,2.17
2023-02-06T11:09:24.190Z,2.17
2023-02-06T11:11:52.763Z,2.08
2023-02-06T11:14:34.905Z,2.05
2023-02-06T11:17:01.910Z,1.35
2023-02-06T11:19:41.406Z,2.50
2023-02-06T11:22:09.290Z,2.45
2023-02-06T11:24:36.836Z,1.75
2023-02-06T11:27:14.896Z,2.05
2023-02-06T11:29:49.848Z,1.90
2023-02-06T11:32:35.162Z,1.17
2023-02-06T11:35:07.506Z,2.47
2023-02-06T11:37:38.328Z,1.88
2023-02-06T11:40:14.736Z,2.15
2023-02-06T11:42:41.132Z,0.77
2023-02-06T11:45:27.305Z,1.40
2023-02-06T11:47:53.851Z,1.70
2023-02-06T11:50:30.947Z,1.17
2023-02-06T11:52:59.914Z,1.15
2023-02-06T11:55:33.103Z,1.55
2023-02-06T11:58:11.521Z,1.45
2023-02-06T12:00:40.021Z,1.27
2023-02-06T12:03:25.106Z,1.58
2023-02-06T12:05:51.731Z,1.63
2023-02-06T12:08:21.091Z,1.85
2023-02-06T12:10:58.238Z,2.05
2023-02-06T12:13:30.284Z,2.38
2023-02-06T12:15:59.961Z,2.00
2023-02-06T12:18:35.645Z,1.95
2023-02-06T12:21:14.164Z,2.28
2023-02-06T12:24:03.071Z,1.70
2023-02-06T12:26:33.492Z,1.80
2023-02-06T12:29:15.423Z,1.38
2023-02-06T12:31:44.901Z,1.38
2023-02-06T12:34:15.807Z,1.60
2023-02-06T12:36:57.253Z,2.08
2023-02-06T12:39:23.639Z,1.35
2023-02-06T12:42:20.220Z,2.30
2023-02-06T12:45:31.473Z,2.47
2023-02-06T12:48:06.427Z,1.45
2023-02-06T12:50:40.756Z,2.63
2023-02-06T12:53:24.643Z,1.90
2023-02-06T12:56:23.284Z,1.98
2023-02-06T12:59:27.373Z,2.33
2023-02-06T13:02:06.057Z,2.33
2023-02-06T13:04:36.328Z,2.10
2023-02-06T13:07:15.756Z,2.03
2023-02-06T13:10:02.673Z,2.85
2023-02-06T13:12:30.611Z,2.78
2023-02-06T13:15:04.423Z,2.42
2023-02-06T13:17:37.172Z,2.90
2023-02-06T13:20:12.230Z,1.77
2023-02-06T13:22:50.354Z,2.47
2023-02-06T13:25:25.585Z,2.05
2023-02-06T13:27:53.255Z,2.80
2023-02-06T13:30:28.811Z,2.60
2023-02-06T13:32:59.494Z,1.75
2023-02-06T13:35:28.986Z,2.60
2023-02-06T13:38:23.095Z,1.42
2023-02-06T13:41:14.356Z,0.90
2023-02-06T13:44:05.323Z,1.63
2023-02-06T13:47:16.562Z,2.00
2023-02-06T13:50:07.520Z,1.42
2023-02-06T13:52:47.574Z,1.65
2023-02-06T13:55:19.782Z,1.92
2023-02-06T14:00:27.388Z,1.60
2023-02-06T14:02:57.081Z,1.73
2023-02-06T14:05:40.572Z,1.15
2023-02-06T14:08:06.886Z,1.08
2023-02-06T14:10:53.433Z,0.68
2023-02-06T14:13:22.517Z,0.63
2023-02-06T14:16:05.118Z,1.38
2023-02-06T14:18:54.117Z,1.10
2023-02-06T14:21:33.399Z,1.70
2023-02-06T14:24:05.584Z,1.50
2023-02-06T14:26:44.155Z,1.10
2023-02-06T14:29:52.790Z,1.42
2023-02-06T14:32:27.973Z,1.40
2023-02-06T14:35:26.722Z,1.10
2023-02-06T14:38:11.057Z,1.30
2023-02-06T14:43:10.841Z,1.40
2023-02-06T14:45:42.543Z,1.77
2023-02-06T14:48:38.756Z,1.88
2023-02-06T14:51:05.593Z,1.35
2023-02-06T14:53:38.804Z,1.40
2023-02-06T14:56:17.085Z,1.88
2023-02-06T15:01:49.206Z,1.80
2023-02-06T15:04:27.190Z,1.70
2023-02-06T15:06:59.726Z,1.45
2023-02-06T15:09:32.285Z,2.55
2023-02-06T15:12:01.948Z,2.13
2023-02-06T15:14:30.821Z,1.80
2023-02-06T15:16:57.952Z,2.03
2023-02-06T15:19:29.180Z,2.33
2023-02-06T15:22:05.832Z,1.75
2023-02-06T15:24:53.218Z,1.77
2023-02-06T15:27:32.823Z,2.22
2023-02-06T15:30:00.809Z,1.90
2023-02-06T15:32:37.153Z,2.08
2023-02-06T15:35:17.022Z,1.80
2023-02-06T15:37:43.332Z,1.67
2023-02-06T15:42:39.574Z,1.40
2023-02-06T15:45:07.350Z,2.20
2023-02-06T15:47:34.132Z,1.70
2023-02-06T15:50:00.615Z,1.90
2023-02-06T15:52:39.291Z,1.88
2023-02-06T15:55:06.108Z,2.75
2023-02-06T15:57:38.440Z,2.08
2023-02-06T16:02:36.799Z,1.95
2023-02-06T16:05:04.956Z,1.88
2023-02-06T16:07:34.535Z,1.45
2023-02-06T16:10:24.102Z,1.90
2023-02-06T16:12:51.271Z,1.45
2023-02-06T16:15:33.737Z,1.25
2023-02-06T16:18:17.209Z,1.23
2023-02-06T16:20:43.598Z,1.40
2023-02-06T16:23:48.563Z,1.75
2023-02-06T16:26:28.461Z,1.58
2023-02-06T16:29:04.771Z,1.50
2023-02-06T16:31:35.039Z,1.65
2023-02-06T16:34:01.542Z,1.80
2023-02-06T16:36:27.893Z,1.50
2023-02-06T16:41:35.469Z,1.50
2023-02-06T16:44:03.766Z,1.58
2023-02-06T16:46:30.533Z,1.48
2023-02-06T16:48:58.781Z,1.33
2023-02-06T16:51:28.009Z,1.35
2023-02-06T16:53:55.069Z,1.38
2023-02-06T16:56:21.749Z,1.55
2023-02-06T16:58:48.338Z,1.65
2023-02-06T17:01:25.856Z,1.25
2023-02-06T17:03:53.139Z,1.15
2023-02-06T17:06:26.094Z,1.08
2023-02-06T17:08:55.595Z,1.05
2023-02-06T17:11:22.172Z,1.38
2023-02-06T17:13:48.546Z,1.08
2023-02-06T17:18:47.102Z,1.50
2023-02-06T17:21:16.014Z,1.30
2023-02-06T17:23:42.885Z,1.70
2023-02-06T17:26:12.829Z,1.73
2023-02-06T17:28:39.677Z,1.50
2023-02-06T17:31:06.836Z,1.35
2023-02-06T17:33:33.928Z,1.42
2023-02-06T17:36:00.502Z,1.70
2023-02-06T17:38:27.010Z,1.95
2023-02-06T17:43:20.557Z,1.98
2023-02-06T17:45:47.003Z,1.67
2023-02-06T17:50:40.933Z,1.95
2023-02-06T17:53:08.784Z,1.77
2023-02-06T17:55:35.366Z,2.15
2023-02-06T17:58:01.893Z,2.63
2023-02-06T18:00:28.695Z,2.25
2023-02-06T18:02:56.300Z,2.65
2023-02-06T18:05:22.943Z,2.22
2023-02-06T18:07:49.803Z,2.30
2023-02-06T18:10:17.545Z,2.13
2023-02-06T18:12:43.984Z,2.55
2023-02-06T18:17:37.109Z,3.90
2023-02-06T18:20:03.835Z,3.72
2023-02-06T18:22:30.190Z,3.92
2023-02-06T18:24:56.552Z,3.22
2023-02-06T18:27:22.910Z,2.85
2023-02-06T18:29:50.669Z,2.60
2023-02-06T18:32:18.334Z,2.40
2023-02-06T18:34:45.498Z,2.42
2023-02-06T18:37:11.975Z,2.05
2023-02-06T18:42:04.669Z,2.58
2023-02-06T18:46:57.409Z,2.75
2023-02-06T18:51:50.095Z,2.38
2023-02-06T18:54:16.422Z,2.15
2023-02-06T18:56:42.836Z,2.13
2023-02-06T18:59:09.216Z,2.45
2023-02-06T19:01:35.633Z,2.17
2023-02-06T19:06:31.611Z,2.10
2023-02-06T19:08:58.899Z,2.28
2023-02-06T19:11:26.106Z,1.80
2023-02-06T19:13:52.498Z,2.25
2023-02-06T19:16:20.079Z,2.53
2023-02-06T19:18:48.901Z,2.92
2023-02-06T19:21:17.910Z,4.28
2023-02-06T19:23:45.986Z,5.18
2023-02-06T19:26:15.109Z,4.40
2023-02-06T19:28:42.884Z,4.85
2023-02-06T19:31:10.707Z,5.47
2023-02-06T19:33:38.908Z,4.13
2023-02-06T19:36:15.988Z,3.65
2023-02-06T19:38:43.593Z,3.05
2023-02-06T19:41:14.385Z,3.28
2023-02-06T19:43:41.853Z,3.72
2023-02-06T19:46:12.144Z,3.55
2023-02-06T19:48:39.775Z,3.17
2023-02-06T19:51:08.793Z,2.92
2023-02-06T19:53:36.492Z,3.35
2023-02-06T19:56:04.553Z,3.65
2023-02-06T19:58:31.585Z,3.80
2023-02-06T20:00:59.034Z,4.70
2023-02-06T20:03:25.539Z,4.95
2023-02-06T20:08:18.289Z,3.58
2023-02-06T20:13:10.893Z,4.78
2023-02-06T20:15:38.646Z,3.75
2023-02-06T20:18:05.321Z,2.88
2023-02-06T20:20:35.657Z,2.90
2023-02-06T20:23:02.398Z,2.88
2023-02-06T20:25:29.094Z,2.90
2023-02-06T20:27:55.775Z,3.10
2023-02-06T20:30:22.176Z,3.85
2023-02-06T20:32:48.513Z,3.20
2023-02-06T20:35:14.944Z,2.35
2023-02-06T20:40:07.993Z,4.03
2023-02-06T20:42:34.339Z,3.00
2023-02-06T20:45:00.648Z,3.60
2023-02-06T20:47:27.332Z,4.18
2023-02-06T20:49:53.683Z,3.17
2023-02-06T20:52:20.065Z,2.65
2023-02-06T20:54:46.487Z,3.63
2023-02-06T20:57:13.889Z,3.92
2023-02-06T20:59:40.197Z,3.17
2023-02-06T21:02:06.600Z,3.53
2023-02-06T21:06:59.267Z,4.00
2023-02-06T21:09:25.661Z,3.17
2023-02-06T21:11:52.110Z,3.97
2023-02-06T21:16:46.026Z,5.07
2023-02-06T21:19:15.403Z,5.00
2023-02-06T21:21:44.907Z,6.97
2023-02-06T21:24:13.068Z,3.47
2023-02-06T21:26:39.526Z,3.88
2023-02-06T21:31:37.221Z,3.05
2023-02-06T21:34:11.608Z,3.80
2023-02-06T21:36:39.208Z,2.92
2023-02-06T21:39:06.147Z,3.35
2023-02-06T21:41:32.649Z,3.58
2023-02-06T21:46:25.267Z,8.90
2023-02-06T21:48:53.126Z,3.75
2023-02-06T21:51:20.251Z,3.70
2023-02-06T21:53:46.615Z,4.65
2023-02-06T21:56:21.899Z,4.70
2023-02-06T21:58:49.265Z,5.43
2023-02-06T22:01:17.542Z,4.80
2023-02-06T22:03:47.858Z,4.03
2023-02-06T22:06:14.937Z,3.90
2023-02-06T22:08:44.278Z,4.43
2023-02-06T22:11:13.023Z,4.22
2023-02-06T22:13:39.449Z,5.50
2023-02-06T22:18:32.413Z,6.97
2023-02-06T22:21:13.179Z,8.00
2023-02-06T22:23:40.677Z,6.28
2023-02-06T22:26:08.863Z,5.20
2023-02-06T22:28:35.313Z,4.65
2023-02-06T22:33:49.075Z,4.10
2023-02-06T22:36:17.797Z,4.80
2023-02-06T22:38:45.570Z,4.43
2023-02-06T22:41:16.482Z,4.93
2023-02-06T22:43:44.474Z,4.85
2023-02-06T22:46:21.481Z,4.65
2023-02-06T22:48:48.091Z,3.95
2023-02-06T22:51:14.917Z,4.78
2023-02-06T22:53:41.684Z,4.72
2023-02-06T22:56:12.124Z,5.68
2023-02-06T22:58:38.481Z,6.13
2023-02-06T23:01:05.093Z,4.97
2023-02-06T23:03:31.537Z,5.57
2023-02-06T23:06:06.625Z,6.30
2023-02-06T23:08:34.741Z,5.45
2023-02-06T23:11:01.425Z,5.65
2023-02-06T23:13:27.840Z,5.70
2023-02-06T23:15:58.393Z,6.25
2023-02-06T23:18:25.799Z,6.47
2023-02-06T23:20:56.102Z,7.20
2023-02-06T23:23:22.577Z,6.55
2023-02-06T23:25:49.434Z,8.43
2023-02-06T23:28:15.937Z,7.35
2023-02-06T23:33:08.786Z,6.25
2023-02-06T23:35:36.977Z,7.32
2023-02-06T23:38:04.115Z,7.43
2023-02-06T23:40:30.637Z,7.38
2023-02-06T23:45:23.952Z,6.60
2023-02-06T23:47:51.314Z,7.65
2023-02-06T23:50:17.775Z,8.82
2023-02-06T23:52:44.503Z,7.88
2023-02-06T23:55:11.358Z,7.43
2023-02-06T23:57:39.159Z,7.50
